createdAt,value
2018-04-12T00:01:06.363Z,7.67
2018-04-12T00:05:40.334Z,10.53
2018-04-12T00:10:13.592Z,10.20
2018-04-12T00:14:47.601Z,7.67
2018-04-12T00:19:21.545Z,11.73
2018-04-12T00:23:55.527Z,11.83
2018-04-12T00:28:28.745Z,11.53
2018-04-12T00:33:01.986Z,9.73
2018-04-12T00:37:35.926Z,8.27
2018-04-12T00:42:09.127Z,12.73
2018-04-12T00:46:43.366Z,14.43
2018-04-12T00:51:16.695Z,13.63
2018-04-12T00:55:49.927Z,11.53
2018-04-12T01:00:23.154Z,8.07
2018-04-12T01:04:57.185Z,14.50
2018-04-12T01:09:30.472Z,9.60
2018-04-12T01:14:03.638Z,14.27
2018-04-12T01:18:36.813Z,7.47
2018-04-12T01:23:10.058Z,9.10
2018-04-12T01:27:43.209Z,13.50
2018-04-12T01:32:16.531Z,15.97
2018-04-12T01:36:50.567Z,18.63
2018-04-12T01:41:24.528Z,15.73
2018-04-12T01:45:57.773Z,8.83
2018-04-12T01:50:30.955Z,16.33
2018-04-12T01:55:04.430Z,16.40
2018-04-12T01:59:37.671Z,16.67
2018-04-12T02:04:10.904Z,20.07
2018-04-12T02:08:44.971Z,20.73
2018-04-12T02:13:18.225Z,19.17
2018-04-12T02:17:51.494Z,15.77
2018-04-12T02:22:24.752Z,20.23
2018-04-12T02:26:58.838Z,13.37
2018-04-12T02:31:32.019Z,23.73
2018-04-12T02:36:05.974Z,17.87
2018-04-12T02:40:39.203Z,13.17
2018-04-12T02:45:12.425Z,16.93
2018-04-12T02:49:45.609Z,21.90
2018-04-12T02:54:18.802Z,20.07
2018-04-12T02:58:53.425Z,23.37
2018-04-12T03:03:27.445Z,14.37
2018-04-12T03:08:01.591Z,11.80
2018-04-12T03:12:34.798Z,20.40
2018-04-12T03:17:08.064Z,23.57
2018-04-12T03:21:42.080Z,15.00
2018-04-12T03:26:16.131Z,11.10
2018-04-12T03:30:50.155Z,17.40
2018-04-12T03:35:24.133Z,30.33
2018-04-12T03:39:57.384Z,20.17
2018-04-12T03:44:31.550Z,19.43
2018-04-12T03:49:04.905Z,9.47
2018-04-12T03:53:38.066Z,15.13
2018-04-12T03:58:11.338Z,29.03
2018-04-12T04:02:45.995Z,43.87
2018-04-12T04:07:19.278Z,19.73
2018-04-12T04:11:52.490Z,15.67
2018-04-12T04:16:38.535Z,13.17
2018-04-12T04:21:14.596Z,21.67
2018-04-12T04:25:47.971Z,17.33
2018-04-12T04:30:22.320Z,14.70
2018-04-12T04:34:56.380Z,14.83
2018-04-12T04:39:29.748Z,22.50
2018-04-12T04:44:03.253Z,23.87
2018-04-12T04:48:37.351Z,17.90
2018-04-12T04:53:11.452Z,12.43
2018-04-12T04:57:44.689Z,15.93
2018-04-12T05:02:17.934Z,16.03
2018-04-12T05:06:51.974Z,11.27
2018-04-12T05:11:25.245Z,16.30
2018-04-12T05:15:58.488Z,14.50
2018-04-12T05:20:31.816Z,14.90
2018-04-12T05:25:05.009Z,16.73
2018-04-12T05:29:38.286Z,17.80
2018-04-12T05:34:11.557Z,19.07
2018-04-12T05:38:44.793Z,21.00
2018-04-12T05:43:18.011Z,18.57
2018-04-12T05:47:51.234Z,17.30
2018-04-12T05:52:24.482Z,17.23
2018-04-12T05:56:57.760Z,18.27
2018-04-12T06:01:30.990Z,18.20
2018-04-12T06:06:04.239Z,15.27
2018-04-12T06:10:37.433Z,19.43
2018-04-12T06:15:10.680Z,24.23
2018-04-12T06:19:44.672Z,25.07
2018-04-12T06:24:17.943Z,26.07
2018-04-12T06:28:51.156Z,23.83
2018-04-12T06:33:24.416Z,26.00
2018-04-12T06:37:58.651Z,26.60
2018-04-12T06:42:32.811Z,29.37
2018-04-12T06:47:06.010Z,24.30
2018-04-12T06:51:39.294Z,26.80
2018-04-12T06:56:13.300Z,26.15
2018-04-12T07:00:46.525Z,27.15
2018-04-12T07:05:20.491Z,26.57
2018-04-12T07:09:53.725Z,29.33
2018-04-12T07:14:26.951Z,26.95
2018-04-12T07:19:00.193Z,25.40
2018-04-12T07:23:33.414Z,23.87
2018-04-12T07:28:06.671Z,23.95
2018-04-12T07:32:39.933Z,23.77
2018-04-12T07:37:13.179Z,22.98
2018-04-12T07:41:46.514Z,24.42
2018-04-12T07:46:20.537Z,24.02
2018-04-12T07:50:54.537Z,24.98
2018-04-12T07:55:27.709Z,23.70
2018-04-12T08:00:01.067Z,21.15
2018-04-12T08:04:34.290Z,22.75
2018-04-12T08:09:08.346Z,23.83
2018-04-12T08:13:41.631Z,21.25
2018-04-12T08:18:15.613Z,21.35
2018-04-12T08:22:48.932Z,21.17
2018-04-12T08:27:23.816Z,22.20
2018-04-12T08:31:57.049Z,21.12
2018-04-12T08:36:30.309Z,20.95
2018-04-12T08:41:04.391Z,18.45
2018-04-12T08:45:37.642Z,18.50
2018-04-12T08:50:11.068Z,18.30
2018-04-12T08:54:45.155Z,20.23
2018-04-12T08:59:18.435Z,18.45
2018-04-12T09:03:51.773Z,18.37
2018-04-12T09:08:25.034Z,17.35
2018-04-12T09:12:59.469Z,18.60
2018-04-12T09:17:32.770Z,16.87
2018-04-12T09:22:06.725Z,17.45
2018-04-12T09:26:41.176Z,16.25
2018-04-12T09:31:15.371Z,16.55
2018-04-12T09:35:49.398Z,15.27
2018-04-12T09:40:23.411Z,16.85
2018-04-12T09:44:57.481Z,15.07
2018-04-12T09:49:30.708Z,14.73
2018-04-12T09:54:04.003Z,15.02
2018-04-12T09:58:37.359Z,14.32
2018-04-12T10:03:12.353Z,13.93
2018-04-12T10:07:51.206Z,12.82
2018-04-12T10:12:24.597Z,11.23
2018-04-12T10:16:57.915Z,10.75
2018-04-12T10:21:31.149Z,12.27
2018-04-12T10:26:04.416Z,12.82
2018-04-12T10:30:37.637Z,10.93
2018-04-12T10:35:10.877Z,9.77
2018-04-12T10:39:44.133Z,10.32
2018-04-12T10:44:17.477Z,11.02
2018-04-12T10:48:50.719Z,6.43
2018-04-12T10:53:24.044Z,6.10
2018-04-12T10:57:57.498Z,6.55
2018-04-12T11:02:30.678Z,5.85
2018-04-12T11:07:04.296Z,5.25
2018-04-12T11:11:37.581Z,6.75
2018-04-12T11:16:11.589Z,6.45
2018-04-12T11:20:44.826Z,8.27
2018-04-12T11:25:19.180Z,5.32
2018-04-12T11:29:52.766Z,6.18
2018-04-12T11:34:26.050Z,5.22
2018-04-12T11:38:59.245Z,5.18
2018-04-12T11:43:32.446Z,5.65
2018-04-12T11:48:08.095Z,5.40
2018-04-12T11:52:42.810Z,5.80
2018-04-12T11:57:16.216Z,6.05
2018-04-12T12:01:55.098Z,4.50
2018-04-12T12:06:28.366Z,8.20
2018-04-12T12:11:02.070Z,4.60
2018-04-12T12:15:35.282Z,5.65
2018-04-12T12:20:09.254Z,6.12
2018-04-12T12:24:42.552Z,4.57
2018-04-12T12:29:15.917Z,6.57
2018-04-12T12:33:49.514Z,6.72
2018-04-12T12:38:23.564Z,4.85
2018-04-12T12:42:56.914Z,4.00
2018-04-12T12:47:30.304Z,4.90
2018-04-12T12:52:03.596Z,5.68
2018-04-12T12:56:36.874Z,3.80
2018-04-12T13:01:10.216Z,4.35
2018-04-12T13:05:43.574Z,4.28
2018-04-12T13:10:16.829Z,5.22
2018-04-12T13:14:50.043Z,4.70
2018-04-12T13:19:24.027Z,5.75
2018-04-12T13:23:57.240Z,4.53
2018-04-12T13:28:31.888Z,4.65
2018-04-12T13:33:05.100Z,4.97
2018-04-12T13:37:39.095Z,3.65
2018-04-12T13:42:13.009Z,6.53
2018-04-12T13:46:46.262Z,4.50
2018-04-12T13:51:19.438Z,3.85
2018-04-12T13:55:52.648Z,7.05
2018-04-12T14:00:25.879Z,4.55
2018-04-12T14:05:00.578Z,8.93
2018-04-12T14:09:33.783Z,6.07
2018-04-12T14:14:07.087Z,5.32
2018-04-12T14:18:40.281Z,4.85
2018-04-12T14:23:13.967Z,7.80
2018-04-12T14:27:47.933Z,4.95
2018-04-12T14:32:21.300Z,5.80
2018-04-12T14:36:55.276Z,6.03
2018-04-12T14:41:28.917Z,5.90
2018-04-12T14:46:02.254Z,4.28
2018-04-12T14:50:36.263Z,4.45
2018-04-12T14:55:10.929Z,6.20
2018-04-12T14:59:45.149Z,7.30
2018-04-12T15:04:19.202Z,4.32
2018-04-12T15:08:52.413Z,5.43
2018-04-12T15:13:25.789Z,5.18
2018-04-12T15:17:59.800Z,6.12
2018-04-12T15:22:33.812Z,5.22
2018-04-12T15:27:07.023Z,4.47
2018-04-12T15:31:40.358Z,3.85
2018-04-12T15:36:14.367Z,5.75
2018-04-12T15:40:47.530Z,3.50
2018-04-12T15:45:20.999Z,4.28
2018-04-12T15:49:54.365Z,5.75
2018-04-12T15:54:27.553Z,6.62
2018-04-12T15:59:00.774Z,4.53
2018-04-12T16:03:34.006Z,4.20
2018-04-12T16:08:07.241Z,5.32
2018-04-12T16:12:41.266Z,5.65
2018-04-12T16:17:15.216Z,5.93
2018-04-12T16:21:48.497Z,4.43
2018-04-12T16:26:22.460Z,4.37
2018-04-12T16:30:55.698Z,3.75
2018-04-12T16:35:28.976Z,5.57
2018-04-12T16:40:02.182Z,4.05
2018-04-12T16:44:35.671Z,3.90
2018-04-12T16:49:09.081Z,2.45
2018-04-12T16:53:43.071Z,7.47
2018-04-12T16:58:16.331Z,5.37
2018-04-12T17:02:49.561Z,4.28
2018-04-12T17:07:22.790Z,3.55
2018-04-12T17:11:56.347Z,5.57
2018-04-12T17:16:30.324Z,3.12
2018-04-12T17:21:04.274Z,4.57
2018-04-12T17:25:38.230Z,5.12
2018-04-12T17:30:11.423Z,7.22
2018-04-12T17:34:45.373Z,5.70
2018-04-12T17:39:18.579Z,2.10
2018-04-12T17:43:51.852Z,5.00
2018-04-12T17:48:25.814Z,4.68
2018-04-12T17:52:59.039Z,4.90
2018-04-12T17:57:32.255Z,3.58
2018-04-12T18:02:05.481Z,3.00
2018-04-12T18:06:39.297Z,2.72
2018-04-12T18:11:12.712Z,10.23
2018-04-12T18:15:45.942Z,6.18
2018-04-12T18:20:19.918Z,9.60
2018-04-12T18:24:53.164Z,5.03
2018-04-12T18:29:26.357Z,4.72
2018-04-12T18:34:01.061Z,9.00
2018-04-12T18:38:34.275Z,7.10
2018-04-12T18:43:07.483Z,5.82
2018-04-12T18:47:40.714Z,9.93
2018-04-12T18:52:13.958Z,10.40
2018-04-12T18:56:47.926Z,10.43
2018-04-12T19:01:21.115Z,6.00
2018-04-12T19:05:55.009Z,6.28
2018-04-12T19:10:28.287Z,21.12
2018-04-12T19:15:01.516Z,16.33
2018-04-12T19:19:35.519Z,10.53
2018-04-12T19:24:08.769Z,19.40
2018-04-12T19:28:42.063Z,8.90
2018-04-12T19:33:16.083Z,11.07
2018-04-12T19:37:50.096Z,21.20
2018-04-12T19:42:24.110Z,15.17
2018-04-12T19:46:57.472Z,7.00
2018-04-12T19:51:30.722Z,11.57
2018-04-12T19:56:03.932Z,12.90
2018-04-12T20:00:37.172Z,14.10
2018-04-12T20:05:11.144Z,14.80
2018-04-12T20:09:44.411Z,17.00
2018-04-12T20:14:18.434Z,33.90
2018-04-12T20:18:51.878Z,18.53
2018-04-12T20:23:25.432Z,10.43
2018-04-12T20:27:58.807Z,9.70
2018-04-12T20:32:32.177Z,6.47
2018-04-12T20:37:06.171Z,5.10
2018-04-12T20:41:39.393Z,18.67
2018-04-12T20:46:14.183Z,6.03
2018-04-12T20:50:47.621Z,6.97
2018-04-12T20:55:20.895Z,8.00
2018-04-12T20:59:54.119Z,10.27
2018-04-12T21:04:27.332Z,8.43
2018-04-12T21:09:00.531Z,16.00
2018-04-12T21:13:33.741Z,8.40
2018-04-12T21:18:06.953Z,35.40
2018-04-12T21:22:40.638Z,11.83
2018-04-12T21:27:14.607Z,13.10
2018-04-12T21:31:47.799Z,28.17
2018-04-12T21:36:21.027Z,15.90
2018-04-12T21:40:54.273Z,10.00
2018-04-12T21:45:28.258Z,9.00
2018-04-12T21:50:01.498Z,5.07
2018-04-12T21:54:35.542Z,6.73
2018-04-12T21:59:08.943Z,52.20
2018-04-12T22:03:42.871Z,22.07
2018-04-12T22:08:16.857Z,8.03
2018-04-12T22:12:50.085Z,10.60
2018-04-12T22:17:23.343Z,31.33
2018-04-12T22:21:56.559Z,13.97
2018-04-12T22:26:29.794Z,7.67
2018-04-12T22:31:03.042Z,7.03
2018-04-12T22:35:36.286Z,9.10
2018-04-12T22:40:09.442Z,12.57
2018-04-12T22:44:43.439Z,8.77
2018-04-12T22:49:16.626Z,13.00
2018-04-12T22:53:49.861Z,7.97
2018-04-12T22:58:23.135Z,5.10
2018-04-12T23:02:56.376Z,7.57
2018-04-12T23:07:29.614Z,6.33
2018-04-12T23:12:03.585Z,7.23
2018-04-12T23:16:36.836Z,6.53
2018-04-12T23:21:10.148Z,5.63
2018-04-12T23:25:44.094Z,5.53
2018-04-12T23:30:17.253Z,6.53
2018-04-12T23:34:50.498Z,7.20
2018-04-12T23:39:23.732Z,5.90
2018-04-12T23:43:56.994Z,4.83
2018-04-12T23:48:30.206Z,5.50
2018-04-12T23:53:04.222Z,6.23
2018-04-12T23:57:38.233Z,4.87
